Latest Coastal Weather Observations for Bellambi

IDN60701

Issued at 9:25 pm EST Wednesday 30 July 2014 (issued every 10 minutes, with the page automatically refreshed every 10 minutes)

About coastal observations | Map of coastal stations | Coastal observations for NSW | Marine services | Other Formats
Station Details ID: 068228 Name: BELLAMBI AWS Lat: -34.37 Lon: 150.93 Height: 10.0 m
Data from the previous 72 hours. | See also: Recent months at Bellambi
Date/Time
EST
Temp

°C
Wind Pressure Rain
since 9am
mm
Weather Cloud Vis
km
Sea
Height
m
Swell
Dir
 
Speed
knots
Gust
knots
hPa Trend Height
m
Period
s
Dir
30/09:00pm 15.6 NNW 7 9 - - 0.0 - - - - - - -
30/08:30pm 17.7 NNW 9 18 - - 0.0 - - - - - - -
30/08:00pm 18.2 NNW 10 17 - - 0.0 - - - - - - -
30/07:30pm 16.7 NW 6 8 - - 0.0 - - - - - - -
30/07:00pm 17.8 NW 5 7 - - 0.0 - - - - - - -
30/06:30pm 18.8 WNW 8 13 - - 0.0 - - - - - - -
30/06:00pm 18.6 NW 8 12 - - 0.0 - Mostly clear - - - - -
30/05:30pm 19.2 W 5 10 - - 0.0 - Partly cloudy - - - - -
30/05:00pm 19.8 WNW 9 16 - - 0.0 - Partly cloudy - - - - -
30/04:30pm 20.6 WNW 10 16 - - 0.0 - Partly cloudy - - - - -
30/04:00pm 21.5 NW 11 23 - - 0.0 - Partly cloudy - - - - -
30/03:30pm 21.7 NW 14 22 - - 0.0 - - - - - - -
30/03:00pm 22.2 WNW 10 19 - - 0.0 - Mostly clear - - - - -
30/02:30pm 22.1 WSW 11 19 - - 0.0 - Partly cloudy - - - - -
30/02:00pm 22.1 W 13 21 - - 0.0 - - - - - - -
30/01:30pm 22.1 W 11 23 - - 0.0 - - - - - - -
30/01:08pm 22.0 WNW 15 25 - - 0.0 - - - - - - -
30/01:00pm 22.1 W 10 19 - - 0.0 - - - - - - -
30/12:30pm 22.0 W 11 17 - - 0.0 - - - - - - -
30/12:00pm 21.7 W 10 18 - - 0.0 - - - - - - -
30/11:30am 21.5 W 11 17 - - 0.0 - - - - - - -
30/11:00am 20.7 W 14 21 - - 0.0 - - - - - - -
30/10:30am 20.5 WNW 14 21 - - 0.0 - - - - - - -
30/10:00am 20.0 NW 10 15 - - 0.0 - - - - - - -
30/09:30am 19.5 NW 4 10 - - 0.0 - - - - - - -
30/09:00am 19.1 NW 6 10 - - - - - - - - - -
30/08:30am 18.3 W 5 13 - - - - - - - - - -
30/08:00am 17.8 WSW 8 16 - - - - - - - - - -
30/07:30am 17.7 SE 9 13 - - - - - - - - - -
30/07:00am 17.0 ESE 10 16 - - - - - - - - - -
30/06:30am 16.9 ENE 9 13 - - - - - - - - - -
30/06:00am 17.2 N 13 26 - - - - - - - - - -
30/05:30am 17.2 W 16 29 - - - - - - - - - -
30/05:27am 17.0 SW 12 20 - - - - - - - - - -
30/05:00am 17.3 W 25 45 - - - - - - - - - -
30/04:30am 17.3 WNW 25 37 - - - - - - - - - -
30/04:00am 17.6 WNW 28 44 - - - - - - - - - -
30/03:30am 17.8 WNW 25 43 - - - - - - - - - -
30/03:24am 17.8 WNW 21 36 - - - - - - - - - -
30/03:00am 17.9 W 16 26 - - 0.0 - - - - - - -
30/02:30am 17.5 W 9 17 - - - - - - - - - -
30/02:00am 17.1 W 7 12 - - - - - - - - - -
30/01:30am 14.1 NW 4 6 - - - - - - - - - -
30/01:00am 13.6 NNW 5 9 - - - - - - - - - -
30/12:30am 13.2 NNW 5 8 - - - - - - - - - -
30/12:00am 12.8 NNW 5 7 - - - - - - - - - -
 
Date/Time
EST
Temp

°C
Wind Pressure Rain
since 9am
mm
Weather Cloud Vis
km
Sea
Height
m
Swell
Dir
 
Speed
knots
Gust
knots
hPa Trend Height
m
Period
s
Dir
29/11:30pm 13.0 NW 4 6 - - - - - - - - - -
29/11:00pm 13.5 NNW 5 7 - - - - - - - - - -
29/10:30pm 14.1 NW 5 7 - - - - - - - - - -
29/10:00pm 16.3 N 7 9 - - - - - - - - - -
29/09:30pm 15.2 NNW 6 9 - - - - - - - - - -
29/09:00pm 15.9 NNW 6 7 - - 0.0 - - - - - - -
29/08:30pm 17.7 N 8 10 - - - - - - - - - -
29/08:00pm 17.9 N 7 11 - - - - - - - - - -
29/07:30pm 18.0 NNW 8 12 - - - - - - - - - -
29/07:00pm 18.2 NW 8 11 - - - - - - - - - -
29/06:30pm 18.2 NW 6 11 - - - - - - - - - -
29/06:00pm 19.4 WNW 9 14 - - - - - - - - - -
29/05:30pm 19.3 NW 5 7 - - - - - - - - - -
29/05:00pm 20.5 NW 8 13 - - - - - - - - - -
29/04:30pm 22.1 WNW 7 11 - - - - - - - - - -
29/04:00pm 22.7 W 8 12 - - - - - - - - - -
29/03:30pm 23.2 WNW 8 14 - - - - - - - - - -
29/03:00pm 23.1 W 10 15 - - - - - - - - - -
29/02:30pm 23.0 NW 11 18 - - - - - - - - - -
29/02:00pm 20.0 NNE 14 17 - - - - - - - - - -
29/01:30pm 20.4 NNE 10 15 - - - - - - - - - -
29/01:00pm 19.6 NE 13 16 - - - - - - - - - -
29/12:30pm 19.4 NE 9 13 - - - - - - - - - -
29/12:00pm 18.6 NNE 11 14 - - - - - - - - - -
29/11:00am 17.8 NNE 13 17 - - 0.0 - - - - - - -
29/10:30am 17.2 N 13 19 - - 0.0 - - - - - - -
29/10:00am 16.4 N 11 15 - - 0.0 - - - - - - -
29/09:30am 16.5 N 10 13 - - 0.0 - - - - - - -
29/09:00am 16.0 N 10 13 - - 0.0 - - - - - - -
29/08:30am 15.5 NNW 12 16 - - 0.0 - - - - - - -
29/08:00am 15.6 NNW 15 18 - - 0.0 - - - - - - -
29/07:30am 16.4 NW 16 20 - - 0.0 - - - - - - -
29/07:00am 16.0 WNW 18 23 - - 0.0 - - - - - - -
29/06:30am 15.2 WNW 17 23 - - 0.0 - - - - - - -
29/06:00am 14.4 WNW 12 16 - - 0.0 - - - - - - -
29/05:30am 13.4 WNW 10 19 - - 0.0 - - - - - - -
29/05:00am 13.6 NW 8 11 - - 0.0 - - - - - - -
29/04:30am 12.8 NW 7 10 - - 0.0 - - - - - - -
29/04:00am 13.5 W 4 6 - - 0.0 - - - - - - -
29/03:30am 13.9 NW 4 9 - - 0.0 - - - - - - -
29/03:00am 14.3 N 5 7 - - 0.0 - - - - - - -
29/02:30am 13.8 SW 4 6 - - 0.0 - - - - - - -
29/02:00am 14.8 NNE 3 6 - - 0.0 - - - - - - -
29/01:30am 15.0 NNE 8 9 - - 0.0 - - - - - - -
29/01:00am 15.9 NNW 7 11 - - 0.0 - - - - - - -
29/12:30am 15.7 E 7 9 - - 0.0 - - - - - - -
29/12:00am 15.6 ENE 4 7 - - 0.0 - - - - - - -
 
Date/Time
EST
Temp

°C
Wind Pressure Rain
since 9am
mm
Weather Cloud Vis
km
Sea
Height
m
Swell
Dir
 
Speed
knots
Gust
knots
hPa Trend Height
m
Period
s
Dir
28/11:30pm 15.8 NE 7 12 - - 0.0 - - - - - - -
28/11:00pm 15.3 NE 5 7 - - 0.0 - - - - - - -
28/10:30pm 15.3 N 4 8 - - 0.0 - - - - - - -
28/10:00pm 15.4 NNW 5 10 - - 0.0 - - - - - - -
28/09:30pm 15.4 WNW 6 12 - - 0.0 - - - - - - -
28/09:00pm 15.1 WNW 6 9 - - 0.0 - - - - - - -
28/08:30pm 14.9 WNW 5 7 - - 0.0 - - - - - - -
28/08:00pm 15.3 WNW 3 8 - - 0.0 - - - - - - -
28/07:30pm 14.9 WNW 5 9 - - 0.0 - - - - - - -
28/07:00pm 15.7 NW 3 7 - - 0.0 - - - - - - -
28/06:30pm 16.1 N 5 8 - - 0.0 - - - - - - -
28/06:00pm 16.5 NW 6 10 - - 0.0 - - - - - - -
28/05:30pm 16.2 W 3 7 - - 0.0 - - - - - - -
28/05:00pm 16.7 WNW 4 7 - - 0.0 - - - - - - -
28/04:30pm 17.1 WSW 3 5 - - 0.0 - - - - - - -
28/04:00pm 17.8 W 4 7 - - 0.0 - - - - - - -
28/03:30pm 18.1 SW 7 12 - - 0.0 - - - - - - -
28/03:00pm 18.3 WSW 13 19 - - 0.0 - - - - - - -
28/02:30pm 18.4 W 9 16 - - 0.0 - - - - - - -
28/02:00pm 18.2 SW 4 6 - - 0.0 - - - - - - -
28/01:30pm 18.3 SW 6 10 - - 0.0 - - - - - - -
28/01:00pm 18.4 SW 8 13 - - 0.0 - - - - - - -
28/12:30pm 18.5 WSW 10 18 - - 0.0 - - - - - - -
28/12:00pm 18.9 SW 10 13 - - 0.0 - - - - - - -
28/11:30am 17.8 W 10 15 - - 0.0 - - - - - - -
28/11:00am 17.0 WSW 13 19 - - 0.0 - - - - - - -
28/10:30am 16.9 WSW 10 17 - - 0.0 - - - - - - -
28/10:00am 16.4 WSW 11 17 - - 0.0 - - - - - - -
28/09:30am 15.2 SSE 5 7 - - 0.0 - - - - - - -
28/09:00am 14.2 SW 6 9 - - 0.0 - - - - - - -
28/08:30am 13.2 WSW 9 12 - - 0.0 - - - - - - -
28/08:00am 12.7 WSW 8 13 - - 0.0 - - - - - - -
28/07:30am 12.5 WSW 9 13 - - 0.0 - - - - - - -
28/07:00am 11.8 W 5 9 - - 0.0 - - - - - - -
28/06:30am 11.8 WSW 6 11 - - 0.0 - - - - - - -
28/06:00am 12.1 W 9 15 - - 0.0 - - - - - - -
28/05:30am 12.1 W 8 14 - - 0.0 - - - - - - -
28/05:00am 12.3 W 11 19 - - 0.0 - - - - - - -
28/04:30am 12.5 W 11 23 - - 0.0 - - - - - - -
28/04:00am 12.3 WSW 10 16 - - 0.0 - - - - - - -
28/03:30am 12.1 W 10 14 - - 0.0 - - - - - - -
28/03:00am 12.1 WNW 13 19 - - 0.0 - - - - - - -
28/02:30am 12.1 W 6 10 - - 0.0 - - - - - - -
28/02:00am 12.2 WNW 10 15 - - 0.0 - - - - - - -
28/01:30am 12.5 NW 11 14 - - 0.0 - - - - - - -
28/01:00am 11.9 SSW 6 8 - - 0.0 - - - - - - -
28/12:30am 12.5 SW 5 11 - - 0.0 - - - - - - -
28/12:00am 12.4 S 4 10 - - 0.0 - - - - - - -
 
Date/Time
EST
Temp

°C
Wind Pressure Rain
since 9am
mm
Weather Cloud Vis
km
Sea
Height
m
Swell
Dir
 
Speed
knots
Gust
knots
hPa Trend Height
m
Period
s
Dir
27/11:30pm 12.1 NW 3 6 - - 0.0 - - - - - - -
27/11:00pm 12.7 NNW 8 12 - - 0.0 - - - - - - -
27/10:30pm 12.9 W 6 11 - - 0.0 - - - - - - -
27/10:00pm 13.1 NW 8 12 - - 0.0 - - - - - - -
27/09:30pm 13.4 WNW 9 15 - - 0.0 - - - - - - -

Other Formats:

Comma delimited format used in spreadsheet applications
http://www.bom.gov.au/fwo/IDN60701/IDN60701.94749.axf

JavaScript Object Notation format (JSON) in row-major order
http://www.bom.gov.au/fwo/IDN60701/IDN60701.94749.json